createdAt,value
2018-03-17T00:00:32.646Z,35.60
2018-03-17T00:03:06.152Z,38.42
2018-03-17T00:05:39.696Z,29.70
2018-03-17T00:08:13.264Z,25.73
2018-03-17T00:10:46.850Z,26.77
2018-03-17T00:13:20.386Z,12.57
2018-03-17T00:15:54.778Z,14.82
2018-03-17T00:18:28.375Z,13.50
2018-03-17T00:21:01.951Z,11.45
2018-03-17T00:23:36.289Z,10.73
2018-03-17T00:26:10.114Z,11.12
2018-03-17T00:28:43.731Z,13.57
2018-03-17T00:31:17.301Z,11.40
2018-03-17T00:33:50.819Z,11.98
2018-03-17T00:36:24.360Z,14.82
2018-03-17T00:38:58.618Z,15.00
2018-03-17T00:41:32.182Z,11.93
2018-03-17T00:44:05.728Z,12.95
2018-03-17T00:46:39.279Z,12.20
2018-03-17T00:49:12.822Z,10.40
2018-03-17T00:51:46.319Z,8.27
2018-03-17T00:54:20.626Z,34.40
2018-03-17T00:56:55.029Z,44.88
2018-03-17T00:59:28.645Z,41.95
2018-03-17T01:02:02.158Z,31.15
2018-03-17T01:04:35.702Z,10.85
2018-03-17T01:07:09.529Z,12.23
2018-03-17T01:09:43.057Z,12.40
2018-03-17T01:12:17.350Z,10.52
2018-03-17T01:14:50.953Z,7.70
2018-03-17T01:17:24.618Z,9.77
2018-03-17T01:19:58.141Z,9.60
2018-03-17T01:22:31.762Z,12.63
2018-03-17T01:25:05.313Z,9.48
2018-03-17T01:27:39.080Z,9.75
2018-03-17T01:30:13.405Z,6.25
2018-03-17T01:32:47.097Z,16.92
2018-03-17T01:35:20.661Z,9.45
2018-03-17T01:37:54.998Z,8.93
2018-03-17T01:40:28.521Z,12.13
2018-03-17T01:43:02.008Z,9.05
2018-03-17T01:45:36.324Z,10.30
2018-03-17T01:48:09.828Z,8.23
2018-03-17T01:50:43.403Z,10.27
2018-03-17T01:53:17.011Z,10.13
2018-03-17T01:55:50.614Z,26.37
2018-03-17T01:58:24.197Z,33.58
2018-03-17T02:00:58.531Z,19.90
2018-03-17T02:03:32.861Z,16.98
2018-03-17T02:06:06.600Z,9.30
2018-03-17T02:08:40.161Z,15.77
2018-03-17T02:11:13.770Z,16.02
2018-03-17T02:13:47.393Z,12.73
2018-03-17T02:16:20.932Z,9.43
2018-03-17T02:18:54.552Z,11.02
2018-03-17T02:21:28.091Z,10.23
2018-03-17T02:24:01.735Z,15.82
2018-03-17T02:26:35.288Z,28.85
2018-03-17T02:29:08.771Z,28.35
2018-03-17T02:31:42.258Z,14.80
2018-03-17T02:34:15.994Z,13.13
2018-03-17T02:36:49.507Z,12.55
2018-03-17T02:39:23.793Z,10.60
2018-03-17T02:41:57.386Z,10.57
2018-03-17T02:44:31.901Z,9.27
2018-03-17T02:47:05.622Z,19.62
2018-03-17T02:49:39.204Z,8.40
2018-03-17T02:52:12.823Z,12.37
2018-03-17T02:54:46.491Z,22.52
2018-03-17T02:57:20.819Z,20.60
2018-03-17T02:59:55.245Z,50.75
2018-03-17T03:02:29.758Z,17.98
2018-03-17T03:05:04.080Z,14.95
2018-03-17T03:07:37.754Z,9.10
2018-03-17T03:10:11.413Z,8.00
2018-03-17T03:12:45.914Z,11.05
2018-03-17T03:15:19.585Z,12.85
2018-03-17T03:17:53.084Z,11.12
2018-03-17T03:20:26.647Z,10.50
2018-03-17T03:23:00.201Z,12.75
2018-03-17T03:25:34.544Z,8.43
2018-03-17T03:28:08.122Z,9.95
2018-03-17T03:30:41.602Z,10.52
2018-03-17T03:33:15.364Z,10.68
2018-03-17T03:35:48.931Z,11.00
2018-03-17T03:38:23.431Z,8.90
2018-03-17T03:40:56.968Z,8.70
2018-03-17T03:43:30.493Z,11.55
2018-03-17T03:46:04.065Z,15.57
2018-03-17T03:48:37.638Z,9.52
2018-03-17T03:51:11.241Z,7.22
2018-03-17T03:53:44.779Z,10.82
2018-03-17T03:56:18.392Z,14.65
2018-03-17T03:58:51.942Z,37.85
2018-03-17T04:01:26.262Z,23.30
2018-03-17T04:03:59.991Z,21.90
2018-03-17T04:06:33.566Z,7.93
2018-03-17T04:09:07.144Z,8.93
2018-03-17T04:11:40.692Z,12.45
2018-03-17T04:14:14.263Z,31.65
2018-03-17T04:16:47.835Z,19.65
2018-03-17T04:19:21.400Z,6.12
2018-03-17T04:21:54.967Z,7.28
2018-03-17T04:24:28.517Z,7.30
2018-03-17T04:27:02.215Z,8.27
2018-03-17T04:29:36.632Z,9.05
2018-03-17T04:32:10.206Z,11.10
2018-03-17T04:34:43.722Z,10.63
2018-03-17T04:37:17.294Z,9.30
2018-03-17T04:39:51.021Z,15.10
2018-03-17T04:42:24.588Z,11.12
2018-03-17T04:44:58.910Z,11.05
2018-03-17T04:47:33.429Z,9.00
2018-03-17T04:50:07.166Z,10.85
2018-03-17T04:52:40.724Z,15.05
2018-03-17T04:55:14.301Z,10.98
2018-03-17T04:57:47.797Z,9.60
2018-03-17T05:00:21.476Z,54.55
2018-03-17T05:02:55.067Z,26.83
2018-03-17T05:05:28.593Z,15.68
2018-03-17T05:08:02.315Z,8.23
2018-03-17T05:10:35.861Z,10.18
2018-03-17T05:13:09.469Z,9.68
2018-03-17T05:15:43.244Z,8.02
2018-03-17T05:18:16.796Z,8.30
2018-03-17T05:20:50.354Z,10.00
2018-03-17T05:23:24.125Z,9.60
2018-03-17T05:25:57.803Z,7.90
2018-03-17T05:28:31.322Z,8.60
2018-03-17T05:31:04.878Z,6.60
2018-03-17T05:33:38.459Z,7.43
2018-03-17T05:36:12.162Z,7.10
2018-03-17T05:38:45.774Z,8.95
2018-03-17T05:41:19.329Z,9.00
2018-03-17T05:43:52.854Z,7.15
2018-03-17T05:46:26.442Z,8.93
2018-03-17T05:49:00.873Z,8.20
2018-03-17T05:51:34.569Z,7.47
2018-03-17T05:54:08.237Z,8.38
2018-03-17T05:56:41.744Z,13.43
2018-03-17T05:59:15.255Z,15.88
2018-03-17T06:01:48.789Z,28.77
2018-03-17T06:04:22.459Z,40.67
2018-03-17T06:06:56.689Z,17.85
2018-03-17T06:09:30.201Z,13.85
2018-03-17T06:12:04.694Z,9.25
2018-03-17T06:14:38.213Z,11.20
2018-03-17T06:17:11.852Z,12.85
2018-03-17T06:19:45.626Z,9.40
2018-03-17T06:22:19.177Z,8.45
2018-03-17T06:24:52.695Z,10.85
2018-03-17T06:27:27.031Z,7.82
2018-03-17T06:30:00.634Z,6.80
2018-03-17T06:32:34.355Z,8.35
2018-03-17T06:35:07.905Z,8.40
2018-03-17T06:37:41.673Z,10.00
2018-03-17T06:40:15.222Z,9.70
2018-03-17T06:42:48.740Z,8.35
2018-03-17T06:45:23.249Z,19.42
2018-03-17T06:47:56.788Z,9.27
2018-03-17T06:50:30.385Z,8.63
2018-03-17T06:53:03.925Z,12.85
2018-03-17T06:55:37.564Z,9.00
2018-03-17T06:58:11.058Z,13.45
2018-03-17T07:00:44.647Z,17.60
2018-03-17T07:03:18.226Z,27.77
2018-03-17T07:05:51.778Z,30.48
2018-03-17T07:08:25.482Z,22.05
2018-03-17T07:10:59.184Z,9.07
2018-03-17T07:13:32.760Z,8.60
2018-03-17T07:16:06.378Z,12.25
2018-03-17T07:18:39.919Z,7.05
2018-03-17T07:21:14.278Z,6.00
2018-03-17T07:23:47.861Z,5.10
2018-03-17T07:26:21.640Z,7.20
2018-03-17T07:28:55.198Z,6.32
2018-03-17T07:31:28.709Z,4.37
2018-03-17T07:34:04.424Z,12.98
2018-03-17T07:36:38.071Z,5.50
2018-03-17T07:39:12.756Z,10.73
2018-03-17T07:41:46.490Z,16.85
2018-03-17T07:44:20.064Z,6.43
2018-03-17T07:46:54.503Z,8.15
2018-03-17T07:49:28.147Z,4.22
2018-03-17T07:52:01.894Z,4.85
2018-03-17T07:54:35.596Z,6.30
2018-03-17T07:57:09.133Z,4.87
2018-03-17T07:59:42.690Z,3.72
2018-03-17T08:02:17.012Z,9.95
2018-03-17T08:04:50.704Z,19.65
2018-03-17T08:07:24.222Z,11.27
2018-03-17T08:09:57.834Z,18.70
2018-03-17T08:12:31.402Z,6.85
2018-03-17T08:15:04.967Z,3.97
2018-03-17T08:17:38.525Z,3.62
2018-03-17T08:20:12.941Z,5.93
2018-03-17T08:22:46.528Z,6.00
2018-03-17T08:25:20.134Z,3.50
2018-03-17T08:27:53.718Z,4.05
2018-03-17T08:30:27.321Z,4.40
2018-03-17T08:33:00.805Z,4.82
2018-03-17T08:35:34.406Z,3.90
2018-03-17T08:38:07.948Z,5.78
2018-03-17T08:40:41.504Z,3.15
2018-03-17T08:43:15.846Z,5.78
2018-03-17T08:45:49.451Z,5.37
2018-03-17T08:48:23.042Z,4.40
2018-03-17T08:50:56.848Z,5.05
2018-03-17T08:53:30.370Z,4.57
2018-03-17T08:56:03.911Z,4.20
2018-03-17T08:58:37.591Z,4.97
2018-03-17T09:01:11.149Z,4.55
2018-03-17T09:03:44.660Z,11.38
2018-03-17T09:06:18.978Z,18.45
2018-03-17T09:08:53.781Z,22.37
2018-03-17T09:11:27.461Z,8.23
2018-03-17T09:14:01.721Z,7.75
2018-03-17T09:16:35.323Z,6.53
2018-03-17T09:19:08.934Z,8.63
2018-03-17T09:21:43.238Z,9.50
2018-03-17T09:24:17.551Z,7.35
2018-03-17T09:26:51.218Z,8.63
2018-03-17T09:29:24.946Z,7.07
2018-03-17T09:31:59.270Z,8.88
2018-03-17T09:34:32.989Z,9.48
2018-03-17T09:37:06.561Z,8.07
2018-03-17T09:39:40.887Z,11.52
2018-03-17T09:42:14.561Z,9.10
2018-03-17T09:44:48.064Z,10.93
2018-03-17T09:47:22.189Z,9.45
2018-03-17T09:49:55.845Z,17.60
2018-03-17T09:52:29.401Z,112.22
2018-03-17T09:55:03.081Z,32.28
2018-03-17T09:57:36.638Z,20.90
2018-03-17T10:00:12.153Z,15.10
2018-03-17T10:02:45.787Z,10.48
2018-03-17T10:05:19.352Z,14.27
2018-03-17T10:07:56.070Z,36.10
2018-03-17T10:10:29.658Z,13.57
2018-03-17T10:13:03.228Z,8.23
2018-03-17T10:15:36.978Z,9.75
2018-03-17T10:18:10.529Z,6.85
2018-03-17T10:20:44.875Z,9.95
2018-03-17T10:23:18.434Z,8.38
2018-03-17T10:25:51.959Z,8.77
2018-03-17T10:28:25.549Z,8.95
2018-03-17T10:30:59.068Z,11.05
2018-03-17T10:33:32.631Z,12.52
2018-03-17T10:36:06.357Z,7.00
2018-03-17T10:38:39.972Z,9.05
2018-03-17T10:41:13.521Z,8.63
2018-03-17T10:43:47.074Z,7.72
2018-03-17T10:46:20.640Z,8.63
2018-03-17T10:48:54.372Z,10.60
2018-03-17T10:51:27.946Z,8.48
2018-03-17T10:54:02.287Z,8.10
2018-03-17T10:56:37.428Z,13.62
2018-03-17T10:59:11.003Z,10.73
2018-03-17T11:01:44.557Z,16.25
2018-03-17T11:04:18.151Z,18.98
2018-03-17T11:06:51.684Z,34.70
2018-03-17T11:09:25.261Z,24.27
2018-03-17T11:11:58.789Z,37.50
2018-03-17T11:14:32.418Z,21.02
2018-03-17T11:17:05.939Z,19.17
2018-03-17T11:19:40.298Z,20.25
2018-03-17T11:22:14.858Z,21.80
2018-03-17T11:24:48.450Z,20.20
2018-03-17T11:27:22.059Z,34.70
2018-03-17T11:29:56.399Z,22.60
2018-03-17T11:32:30.014Z,20.67
2018-03-17T11:35:03.677Z,24.35
2018-03-17T11:37:37.192Z,33.47
2018-03-17T11:40:10.809Z,28.20
2018-03-17T11:42:44.354Z,27.67
2018-03-17T11:45:18.006Z,21.77
2018-03-17T11:47:51.710Z,22.13
2018-03-17T11:50:25.381Z,22.13
2018-03-17T11:52:59.707Z,21.23
2018-03-17T11:55:35.015Z,27.33
2018-03-17T11:58:09.366Z,20.65
2018-03-17T12:00:43.081Z,19.20
2018-03-17T12:03:16.618Z,17.02
2018-03-17T12:05:51.044Z,19.45
2018-03-17T12:08:25.362Z,70.60
2018-03-17T12:10:58.888Z,34.67
2018-03-17T12:13:32.398Z,36.10
2018-03-17T12:16:05.978Z,27.85
2018-03-17T12:18:39.474Z,28.95
2018-03-17T12:21:13.013Z,25.55
2018-03-17T12:23:46.613Z,28.17
2018-03-17T12:26:20.177Z,31.95
2018-03-17T12:28:53.723Z,30.52
2018-03-17T12:31:28.049Z,33.42
2018-03-17T12:34:01.639Z,31.73
2018-03-17T12:36:35.218Z,30.42
2018-03-17T12:39:08.735Z,29.98
2018-03-17T12:41:42.336Z,29.33
2018-03-17T12:44:15.867Z,28.77
2018-03-17T12:46:49.384Z,28.25
2018-03-17T12:49:23.019Z,24.80
2018-03-17T12:51:56.607Z,30.17
2018-03-17T12:54:30.199Z,29.90
2018-03-17T12:57:03.797Z,30.85
2018-03-17T12:59:37.337Z,29.45
2018-03-17T13:02:10.893Z,32.03
2018-03-17T13:04:44.523Z,32.28
2018-03-17T13:07:18.128Z,40.20
2018-03-17T13:09:51.686Z,49.08
2018-03-17T13:12:26.134Z,46.55
2018-03-17T13:14:59.926Z,40.45
2018-03-17T13:17:33.448Z,32.90
2018-03-17T13:20:07.034Z,38.42
2018-03-17T13:22:52.633Z,33.75
2018-03-17T13:25:26.187Z,34.25
2018-03-17T13:28:15.388Z,30.48
2018-03-17T13:30:49.077Z,32.28
2018-03-17T13:33:26.681Z,30.30
2018-03-17T13:36:12.933Z,35.05
2018-03-17T13:38:46.508Z,30.17
2018-03-17T13:41:20.069Z,33.33
2018-03-17T13:43:54.400Z,35.10
2018-03-17T13:46:28.084Z,34.08
2018-03-17T13:49:01.789Z,30.60
2018-03-17T13:51:35.316Z,29.85
2018-03-17T13:54:08.847Z,24.65
2018-03-17T13:56:43.207Z,28.67
2018-03-17T13:59:16.793Z,27.10
2018-03-17T14:01:50.306Z,27.50
2018-03-17T14:04:23.869Z,29.05
2018-03-17T14:06:57.443Z,28.25
2018-03-17T14:09:31.105Z,31.45
2018-03-17T14:12:04.614Z,33.30
2018-03-17T14:14:39.039Z,37.33
2018-03-17T14:17:13.443Z,37.55
2018-03-17T14:19:47.195Z,31.27
2018-03-17T14:22:23.937Z,34.28
2018-03-17T14:24:58.250Z,28.15
2018-03-17T14:27:31.968Z,31.95
2018-03-17T14:30:06.274Z,40.55
2018-03-17T14:32:39.773Z,34.13
2018-03-17T14:35:13.304Z,99.60
2018-03-17T14:37:46.897Z,48.75
2018-03-17T14:40:20.572Z,88.60
2018-03-17T14:42:54.137Z,38.85
2018-03-17T14:45:27.684Z,35.42
2018-03-17T14:48:01.251Z,50.28
2018-03-17T14:50:35.603Z,30.52
2018-03-17T14:53:09.212Z,28.75
2018-03-17T14:55:42.839Z,31.35
2018-03-17T14:58:16.333Z,27.35
2018-03-17T15:00:49.976Z,32.28
2018-03-17T15:03:23.505Z,27.37
2018-03-17T15:05:57.026Z,32.95
2018-03-17T15:08:30.659Z,33.20
2018-03-17T15:11:04.210Z,33.70
2018-03-17T15:13:37.742Z,32.10
2018-03-17T15:16:11.375Z,43.65
2018-03-17T15:18:44.961Z,43.58
2018-03-17T15:21:18.577Z,38.47
2018-03-17T15:23:53.023Z,27.62
2018-03-17T15:26:26.704Z,29.92
2018-03-17T15:29:00.313Z,24.77
2018-03-17T15:31:34.629Z,29.55
2018-03-17T15:34:08.238Z,28.02
2018-03-17T15:36:41.826Z,32.45
2018-03-17T15:39:15.419Z,27.92
2018-03-17T15:41:49.048Z,32.20
2018-03-17T15:44:22.768Z,37.38
2018-03-17T15:46:57.067Z,31.00
2018-03-17T15:49:30.772Z,34.38
2018-03-17T15:52:04.365Z,34.95
2018-03-17T15:54:38.053Z,37.22
2018-03-17T15:57:11.635Z,33.08
2018-03-17T15:59:45.263Z,45.83
2018-03-17T16:02:19.592Z,39.40
2018-03-17T16:04:53.323Z,36.13
2018-03-17T16:07:27.049Z,38.22
2018-03-17T16:10:00.543Z,37.22
2018-03-17T16:12:34.116Z,37.40
2018-03-17T16:15:07.791Z,40.00
2018-03-17T16:17:41.389Z,46.08
2018-03-17T16:20:14.997Z,55.20
2018-03-17T16:22:48.583Z,57.03
2018-03-17T16:25:22.095Z,68.97
2018-03-17T16:27:56.614Z,50.72
2018-03-17T16:30:30.210Z,42.15
2018-03-17T16:33:03.800Z,44.60
2018-03-17T16:35:38.168Z,46.78
2018-03-17T16:38:12.445Z,42.15
2018-03-17T16:40:45.952Z,38.65
2018-03-17T16:43:19.562Z,46.60
2018-03-17T16:45:53.131Z,55.10
2018-03-17T16:48:26.656Z,116.07
2018-03-17T16:51:00.965Z,99.93
2018-03-17T16:53:34.679Z,54.53
2018-03-17T16:56:08.265Z,97.88
2018-03-17T16:58:41.907Z,59.55
2018-03-17T17:01:15.624Z,46.22
2018-03-17T17:03:49.153Z,66.85
2018-03-17T17:06:22.691Z,52.30
2018-03-17T17:08:56.262Z,49.70
2018-03-17T17:11:29.920Z,44.78
2018-03-17T17:14:04.271Z,55.75
2018-03-17T17:16:38.706Z,52.08
2018-03-17T17:19:12.360Z,61.30
2018-03-17T17:21:46.046Z,60.95
2018-03-17T17:24:19.583Z,69.70
2018-03-17T17:26:53.187Z,120.15
2018-03-17T17:29:26.719Z,77.50
2018-03-17T17:32:00.379Z,48.83
2018-03-17T17:34:33.896Z,49.38
2018-03-17T17:37:07.396Z,53.60
2018-03-17T17:39:40.978Z,63.70
2018-03-17T17:42:14.520Z,53.45
2018-03-17T17:44:48.116Z,53.58
2018-03-17T17:47:21.709Z,49.25
2018-03-17T17:49:55.363Z,48.90
2018-03-17T17:52:28.907Z,54.83
2018-03-17T17:55:02.515Z,52.25
2018-03-17T17:57:36.098Z,52.85
2018-03-17T18:00:09.598Z,50.63
2018-03-17T18:02:43.937Z,56.00
2018-03-17T18:05:17.427Z,51.50
2018-03-17T18:07:51.001Z,51.65
2018-03-17T18:10:25.346Z,56.88
2018-03-17T18:12:59.862Z,54.00
2018-03-17T18:15:34.176Z,56.35
2018-03-17T18:18:08.023Z,56.55
2018-03-17T18:20:41.544Z,61.28
2018-03-17T18:23:15.144Z,48.92
2018-03-17T18:25:48.685Z,72.95
2018-03-17T18:28:22.219Z,58.40
2018-03-17T18:30:55.754Z,47.15
2018-03-17T18:33:30.314Z,46.05
2018-03-17T18:36:04.764Z,51.83
2018-03-17T18:38:38.549Z,41.00
2018-03-17T18:41:12.122Z,44.13
2018-03-17T18:43:46.442Z,44.17
2018-03-17T18:46:20.230Z,43.17
2018-03-17T18:48:53.773Z,48.42
2018-03-17T18:51:27.366Z,42.03
2018-03-17T18:54:01.132Z,43.72
2018-03-17T18:56:35.478Z,50.00
2018-03-17T18:59:09.904Z,46.72
2018-03-17T19:01:43.633Z,50.00
2018-03-17T19:04:17.242Z,46.13
2018-03-17T19:06:50.791Z,47.72
2018-03-17T19:09:24.405Z,43.75
2018-03-17T19:11:58.017Z,42.92
2018-03-17T19:14:31.602Z,42.08
2018-03-17T19:17:05.254Z,47.17
2018-03-17T19:19:38.989Z,44.28
2018-03-17T19:22:12.588Z,40.55
2018-03-17T19:24:46.186Z,67.00
2018-03-17T19:27:19.940Z,73.55
2018-03-17T19:29:53.631Z,71.10
2018-03-17T19:32:27.212Z,43.72
2018-03-17T19:35:00.787Z,47.55
2018-03-17T19:37:34.678Z,45.85
2018-03-17T19:40:08.431Z,36.60
2018-03-17T19:42:41.932Z,45.72
2018-03-17T19:45:16.253Z,43.83
2018-03-17T19:47:49.925Z,49.15
2018-03-17T19:50:23.448Z,39.40
2018-03-17T19:52:57.057Z,44.33
2018-03-17T19:55:30.607Z,41.88
2018-03-17T19:58:04.181Z,41.03
2018-03-17T20:00:37.752Z,39.92
2018-03-17T20:03:11.477Z,44.35
2018-03-17T20:05:45.779Z,48.55
2018-03-17T20:08:19.412Z,52.45
2018-03-17T20:10:52.953Z,45.78
2018-03-17T20:13:26.547Z,38.45
2018-03-17T20:16:00.886Z,37.17
2018-03-17T20:18:34.613Z,39.10
2018-03-17T20:21:09.130Z,44.25
2018-03-17T20:23:42.740Z,48.83
2018-03-17T20:26:16.333Z,45.75
2018-03-17T20:28:49.925Z,53.90
2018-03-17T20:31:23.505Z,46.05
2018-03-17T20:33:57.052Z,48.38
2018-03-17T20:36:30.626Z,43.13
2018-03-17T20:39:04.194Z,36.75
2018-03-17T20:41:37.678Z,42.40
2018-03-17T20:44:11.425Z,37.85
2018-03-17T20:46:45.190Z,42.30
2018-03-17T20:49:18.705Z,39.00
2018-03-17T20:51:52.187Z,42.30
2018-03-17T20:54:25.745Z,43.30
2018-03-17T20:56:59.289Z,45.28
2018-03-17T20:59:32.835Z,39.83
2018-03-17T21:02:07.137Z,40.67
2018-03-17T21:04:40.761Z,35.88
2018-03-17T21:07:14.378Z,46.10
2018-03-17T21:09:48.673Z,45.70
2018-03-17T21:12:23.002Z,35.90
2018-03-17T21:14:56.510Z,41.03
2018-03-17T21:17:30.224Z,34.17
2018-03-17T21:20:03.710Z,33.47
2018-03-17T21:22:37.280Z,34.08
2018-03-17T21:25:10.789Z,40.53
2018-03-17T21:27:44.467Z,31.02
2018-03-17T21:30:18.010Z,36.85
2018-03-17T21:32:51.598Z,47.85
2018-03-17T21:35:25.153Z,32.95
2018-03-17T21:37:58.685Z,29.33
2018-03-17T21:40:32.242Z,31.67
2018-03-17T21:43:05.948Z,31.90
2018-03-17T21:45:40.192Z,27.95
2018-03-17T21:48:13.731Z,27.70
2018-03-17T21:50:47.305Z,26.87
2018-03-17T21:53:20.849Z,28.00
2018-03-17T21:55:54.394Z,32.45
2018-03-17T21:58:28.022Z,33.65
2018-03-17T22:01:01.586Z,29.60
2018-03-17T22:03:35.122Z,28.62
2018-03-17T22:06:08.701Z,31.40
2018-03-17T22:08:42.276Z,32.15
2018-03-17T22:11:15.874Z,36.10
2018-03-17T22:13:49.465Z,29.52
2018-03-17T22:16:23.074Z,31.15
2018-03-17T22:18:56.564Z,33.28
2018-03-17T22:21:30.190Z,32.83
2018-03-17T22:24:03.721Z,32.33
2018-03-17T22:26:37.278Z,45.53
2018-03-17T22:29:10.812Z,42.88
2018-03-17T22:31:44.354Z,49.13
2018-03-17T22:34:18.724Z,56.00
2018-03-17T22:36:52.347Z,78.65
2018-03-17T22:39:25.905Z,45.58
2018-03-17T22:41:59.615Z,39.05
2018-03-17T22:44:33.112Z,45.03
2018-03-17T22:47:06.748Z,44.75
2018-03-17T22:49:40.249Z,39.65
2018-03-17T22:52:13.905Z,46.72
2018-03-17T22:54:47.467Z,48.25
2018-03-17T22:57:21.073Z,45.12
2018-03-17T22:59:54.600Z,45.80
2018-03-17T23:02:28.194Z,44.85
2018-03-17T23:05:01.803Z,37.20
2018-03-17T23:07:35.396Z,39.05
2018-03-17T23:10:09.057Z,41.42
2018-03-17T23:12:42.662Z,42.30
2018-03-17T23:15:16.222Z,43.33
2018-03-17T23:17:49.726Z,42.55
2018-03-17T23:20:23.409Z,42.95
2018-03-17T23:22:57.206Z,42.30
2018-03-17T23:25:30.966Z,36.80
2018-03-17T23:28:04.768Z,42.65
2018-03-17T23:30:38.662Z,39.55
2018-03-17T23:33:12.398Z,46.72
2018-03-17T23:35:46.144Z,65.32
2018-03-17T23:38:20.038Z,73.60
2018-03-17T23:40:53.825Z,43.95
2018-03-17T23:43:27.589Z,43.92
2018-03-17T23:46:01.293Z,39.90
2018-03-17T23:48:34.923Z,35.75
2018-03-17T23:51:08.740Z,44.05
2018-03-17T23:53:42.598Z,45.70
2018-03-17T23:56:16.327Z,43.50
2018-03-17T23:58:50.209Z,39.47
